createdAt,value
2022-12-27T00:01:56.570Z,8.60
2022-12-27T00:04:25.656Z,8.60
2022-12-27T00:06:54.218Z,8.60
2022-12-27T00:09:25.867Z,8.60
2022-12-27T00:11:59.750Z,8.60
2022-12-27T00:14:28.927Z,8.60
2022-12-27T00:16:57.544Z,8.60
2022-12-27T00:19:26.159Z,8.60
2022-12-27T00:21:54.750Z,8.60
2022-12-27T00:24:23.295Z,8.60
2022-12-27T00:26:53.304Z,8.60
2022-12-27T00:29:23.020Z,8.60
2022-12-27T00:31:52.079Z,8.50
2022-12-27T00:34:20.657Z,8.60
2022-12-27T00:36:49.216Z,8.50
2022-12-27T00:39:17.962Z,8.50
2022-12-27T00:41:47.597Z,8.50
2022-12-27T00:44:17.828Z,8.50
2022-12-27T00:46:46.239Z,8.50
2022-12-27T00:49:14.811Z,8.50
2022-12-27T00:51:43.243Z,8.50
2022-12-27T00:54:11.708Z,8.50
2022-12-27T00:56:40.317Z,8.50
2022-12-27T00:59:08.949Z,8.50
2022-12-27T01:01:39.828Z,8.50
2022-12-27T01:04:09.045Z,8.50
2022-12-27T01:06:37.967Z,8.50
2022-12-27T01:09:07.325Z,8.50
2022-12-27T01:11:36.174Z,8.50
2022-12-27T01:14:06.588Z,8.50
2022-12-27T01:16:35.650Z,8.50
2022-12-27T01:19:05.564Z,8.50
2022-12-27T01:21:34.095Z,8.50
2022-12-27T01:24:02.563Z,8.50
2022-12-27T01:26:31.129Z,8.50
2022-12-27T01:28:59.803Z,8.50
2022-12-27T01:31:29.638Z,8.50
2022-12-27T01:34:00.047Z,8.40
2022-12-27T01:36:31.714Z,8.50
2022-12-27T01:39:01.148Z,8.50
2022-12-27T01:41:49.807Z,8.40
2022-12-27T01:44:53.407Z,8.40
2022-12-27T01:47:30.679Z,8.40
2022-12-27T01:50:07.629Z,8.40
2022-12-27T01:52:40.885Z,8.40
2022-12-27T01:55:19.854Z,8.40
2022-12-27T01:57:50.028Z,8.40
2022-12-27T02:00:19.202Z,8.40
2022-12-27T02:02:48.048Z,8.40
2022-12-27T02:05:19.821Z,8.40
2022-12-27T02:08:03.124Z,8.40
2022-12-27T02:10:32.751Z,8.40
2022-12-27T02:13:02.283Z,8.40
2022-12-27T02:15:30.783Z,8.40
2022-12-27T02:17:59.413Z,8.40
2022-12-27T02:20:36.224Z,8.40
2022-12-27T02:23:57.828Z,8.40
2022-12-27T02:26:48.694Z,8.40
2022-12-27T02:29:45.499Z,8.40
2022-12-27T02:32:21.182Z,8.40
2022-12-27T02:34:59.760Z,8.30
2022-12-27T02:37:32.928Z,8.30
2022-12-27T02:40:18.255Z,8.30
2022-12-27T02:43:05.628Z,8.30
2022-12-27T02:45:59.975Z,8.30
2022-12-27T02:48:46.078Z,8.30
2022-12-27T02:51:55.060Z,8.40
2022-12-27T02:54:38.853Z,8.30
2022-12-27T02:57:14.818Z,8.30
2022-12-27T03:00:27.904Z,8.30
2022-12-27T03:03:24.183Z,8.30
2022-12-27T03:06:31.028Z,8.30
2022-12-27T03:09:09.343Z,8.30
2022-12-27T03:12:02.891Z,8.30
2022-12-27T03:14:56.010Z,8.30
2022-12-27T03:17:34.289Z,8.30
2022-12-27T03:20:28.197Z,8.30
2022-12-27T03:23:15.407Z,8.30
2022-12-27T03:25:45.509Z,8.30
2022-12-27T03:28:36.265Z,8.30
2022-12-27T03:31:28.935Z,8.30
2022-12-27T03:34:04.725Z,8.30
2022-12-27T03:36:52.928Z,8.30
2022-12-27T03:39:28.892Z,8.20
2022-12-27T03:42:19.355Z,8.20
2022-12-27T03:44:48.190Z,8.20
2022-12-27T03:47:37.808Z,8.20
2022-12-27T03:50:11.125Z,8.20
2022-12-27T03:52:45.289Z,8.20
2022-12-27T03:55:14.541Z,8.20
2022-12-27T03:57:43.411Z,8.20
2022-12-27T04:00:13.630Z,8.20
2022-12-27T04:02:42.574Z,8.20
2022-12-27T04:05:11.202Z,8.20
2022-12-27T04:07:54.987Z,8.20
2022-12-27T04:10:40.906Z,8.20
2022-12-27T04:13:26.979Z,8.20
2022-12-27T04:16:13.219Z,8.20
2022-12-27T04:18:59.313Z,8.20
2022-12-27T04:21:45.475Z,8.20
2022-12-27T04:24:32.929Z,8.20
2022-12-27T04:27:18.746Z,8.10
2022-12-27T04:30:04.600Z,8.20
2022-12-27T04:32:50.807Z,8.10
2022-12-27T04:35:19.300Z,8.10
2022-12-27T04:37:47.806Z,8.10
2022-12-27T04:40:46.572Z,8.10
2022-12-27T04:43:32.455Z,8.10
2022-12-27T04:46:18.160Z,8.10
2022-12-27T04:49:04.167Z,8.10
2022-12-27T04:51:49.933Z,8.10
2022-12-27T04:54:37.825Z,8.10
2022-12-27T04:57:08.522Z,8.10
2022-12-27T04:59:54.805Z,8.10
2022-12-27T05:02:23.569Z,8.10
2022-12-27T05:04:52.685Z,8.10
2022-12-27T05:07:38.691Z,8.10
2022-12-27T05:10:26.356Z,8.10
2022-12-27T05:13:13.918Z,8.10
2022-12-27T05:15:42.469Z,8.10
2022-12-27T05:18:11.028Z,8.10
2022-12-27T05:20:39.562Z,8.10
2022-12-27T05:23:25.296Z,8.10
2022-12-27T05:25:53.773Z,8.00
2022-12-27T05:28:23.675Z,8.10
2022-12-27T05:30:52.223Z,8.00
2022-12-27T05:33:20.659Z,8.00
2022-12-27T05:35:49.131Z,8.00
2022-12-27T05:38:17.691Z,8.00
2022-12-27T05:40:46.933Z,8.00
2022-12-27T05:43:16.054Z,8.00
2022-12-27T05:45:45.874Z,8.00
2022-12-27T05:48:14.423Z,8.00
2022-12-27T05:50:42.922Z,8.00
2022-12-27T05:53:12.183Z,8.00
2022-12-27T05:55:40.876Z,8.00
2022-12-27T05:58:09.429Z,8.00
2022-12-27T06:00:37.926Z,8.00
2022-12-27T06:03:10.275Z,8.00
2022-12-27T06:05:38.817Z,8.00
2022-12-27T06:08:07.720Z,8.00
2022-12-27T06:10:38.480Z,8.00
2022-12-27T06:13:07.255Z,8.00
2022-12-27T06:15:36.125Z,8.00
2022-12-27T06:18:06.709Z,8.00
2022-12-27T06:20:37.313Z,8.00
2022-12-27T06:23:05.868Z,8.00
2022-12-27T06:25:34.433Z,8.00
2022-12-27T06:28:02.944Z,8.00
2022-12-27T06:30:35.992Z,7.90
2022-12-27T06:33:05.034Z,7.90
2022-12-27T06:35:38.310Z,8.00
2022-12-27T06:38:06.852Z,7.90
2022-12-27T06:40:35.364Z,7.90
2022-12-27T06:43:06.999Z,7.90
2022-12-27T06:45:35.647Z,7.90
2022-12-27T06:48:04.296Z,7.90
2022-12-27T06:50:32.871Z,7.90
2022-12-27T06:53:02.728Z,7.90
2022-12-27T06:55:31.260Z,7.90
2022-12-27T06:58:00.987Z,7.90
2022-12-27T07:00:29.515Z,7.90
2022-12-27T07:02:58.038Z,7.90
2022-12-27T07:05:26.543Z,7.90
2022-12-27T07:07:54.962Z,7.90
2022-12-27T07:10:24.861Z,7.90
2022-12-27T07:12:53.355Z,7.90
2022-12-27T07:15:22.138Z,7.90
2022-12-27T07:17:50.650Z,7.90
2022-12-27T07:20:19.192Z,7.90
2022-12-27T07:22:47.588Z,7.80
2022-12-27T07:25:15.996Z,7.80
2022-12-27T07:27:45.866Z,7.80
2022-12-27T07:30:14.542Z,7.80
2022-12-27T07:32:42.831Z,7.90
2022-12-27T07:35:11.396Z,7.90
2022-12-27T07:37:39.702Z,7.80
2022-12-27T07:40:09.384Z,7.80
2022-12-27T07:42:40.319Z,7.80
2022-12-27T07:45:11.499Z,7.80
2022-12-27T07:47:39.866Z,7.80
2022-12-27T07:50:09.060Z,7.80
2022-12-27T07:52:37.456Z,7.80
2022-12-27T07:55:06.576Z,7.80
2022-12-27T07:57:34.935Z,7.80
2022-12-27T08:00:03.711Z,7.80
2022-12-27T08:02:43.485Z,7.80
2022-12-27T08:05:14.117Z,7.80
2022-12-27T08:07:43.228Z,7.80
2022-12-27T08:10:12.025Z,7.80
2022-12-27T08:12:41.238Z,7.70
2022-12-27T08:15:12.205Z,7.80
2022-12-27T08:17:45.153Z,7.70
2022-12-27T08:20:15.541Z,7.80
2022-12-27T08:22:46.993Z,7.80
2022-12-27T08:25:15.298Z,7.70
2022-12-27T08:27:45.268Z,7.80
2022-12-27T08:30:14.543Z,7.70
2022-12-27T08:32:44.615Z,7.70
2022-12-27T08:35:50.171Z,7.70
2022-12-27T08:38:02.435Z,7.70
2022-12-27T08:40:31.110Z,7.70
2022-12-27T08:43:00.622Z,7.70
2022-12-27T08:45:28.977Z,7.70
2022-12-27T08:48:02.136Z,7.70
2022-12-27T08:50:31.770Z,7.70
2022-12-27T08:53:02.183Z,7.70
2022-12-27T08:55:31.764Z,7.70
2022-12-27T08:58:12.226Z,7.70
2022-12-27T09:00:44.402Z,7.70
2022-12-27T09:03:14.248Z,7.70
2022-12-27T09:05:42.856Z,7.70
2022-12-27T09:08:14.334Z,7.70
2022-12-27T09:10:42.700Z,7.70
2022-12-27T09:13:11.177Z,7.70
2022-12-27T09:15:40.183Z,7.70
2022-12-27T09:18:08.740Z,7.70
2022-12-27T09:20:38.893Z,7.70
2022-12-27T09:23:07.216Z,7.70
2022-12-27T09:25:36.049Z,7.70
2022-12-27T09:28:04.754Z,7.70
2022-12-27T09:30:33.106Z,7.70
2022-12-27T09:33:01.415Z,7.70
2022-12-27T09:35:30.222Z,7.70
2022-12-27T09:38:01.438Z,7.70
2022-12-27T09:40:29.824Z,7.70
2022-12-27T09:43:16.664Z,7.70
2022-12-27T09:45:53.667Z,7.70
2022-12-27T09:48:32.947Z,7.70
2022-12-27T09:51:06.636Z,7.70
2022-12-27T09:53:44.470Z,7.70
2022-12-27T09:56:14.913Z,7.70
2022-12-27T09:58:50.589Z,7.70
2022-12-27T10:01:23.621Z,7.70
2022-12-27T10:03:54.848Z,7.70
2022-12-27T10:06:44.147Z,7.70
2022-12-27T10:09:36.935Z,7.70
2022-12-27T10:12:18.441Z,7.70
2022-12-27T10:15:00.712Z,7.70
2022-12-27T10:17:41.321Z,7.70
2022-12-27T10:20:22.871Z,7.70
2022-12-27T10:22:54.172Z,7.70
2022-12-27T10:25:25.536Z,7.70
2022-12-27T10:27:59.723Z,7.70
2022-12-27T10:30:31.782Z,7.70
2022-12-27T10:33:01.566Z,7.70
2022-12-27T10:35:30.319Z,7.70
2022-12-27T10:38:01.751Z,7.70
2022-12-27T10:40:40.183Z,7.70
2022-12-27T10:43:17.931Z,7.70
2022-12-27T10:45:46.516Z,7.60
2022-12-27T10:48:22.279Z,7.60
2022-12-27T10:50:55.380Z,7.70
2022-12-27T10:53:44.004Z,7.70
2022-12-27T10:56:26.833Z,7.70
2022-12-27T10:58:59.021Z,7.70
2022-12-27T11:01:29.858Z,7.70
2022-12-27T11:04:19.414Z,7.70
2022-12-27T11:06:50.169Z,7.70
2022-12-27T11:09:30.946Z,7.70
2022-12-27T11:12:21.013Z,7.70
2022-12-27T11:14:57.696Z,7.60
2022-12-27T11:17:28.751Z,7.70
2022-12-27T11:19:59.814Z,7.70
2022-12-27T11:22:28.476Z,7.60
2022-12-27T11:25:01.059Z,7.70
2022-12-27T11:27:31.838Z,7.70
2022-12-27T11:30:00.833Z,7.70
2022-12-27T11:32:29.253Z,7.70
2022-12-27T11:34:58.472Z,7.70
2022-12-27T11:37:28.378Z,7.70
2022-12-27T11:40:13.916Z,7.60
2022-12-27T11:42:48.613Z,7.70
2022-12-27T11:45:23.613Z,7.60
2022-12-27T11:47:56.754Z,7.60
2022-12-27T11:50:44.068Z,7.60
2022-12-27T11:53:55.823Z,7.60
2022-12-27T11:56:27.469Z,7.60
2022-12-27T11:59:31.182Z,7.60
2022-12-27T12:02:27.560Z,7.60
2022-12-27T12:05:39.065Z,7.60
2022-12-27T12:08:35.536Z,7.60
2022-12-27T12:11:14.497Z,7.60
2022-12-27T12:14:11.103Z,7.60
2022-12-27T12:16:56.925Z,7.60
2022-12-27T12:19:42.396Z,7.60
2022-12-27T12:22:30.049Z,7.60
2022-12-27T12:25:24.340Z,7.60
2022-12-27T12:28:47.383Z,7.60
2022-12-27T12:31:15.079Z,7.60
2022-12-27T12:33:57.748Z,7.60
2022-12-27T12:36:49.246Z,7.60
2022-12-27T12:39:31.953Z,7.60
2022-12-27T12:42:15.784Z,7.60
2022-12-27T12:45:02.736Z,7.60
2022-12-27T12:48:06.490Z,7.60
2022-12-27T12:50:54.135Z,7.60
2022-12-27T12:53:36.225Z,7.60
2022-12-27T12:56:30.072Z,7.60
2022-12-27T12:59:12.330Z,7.60
2022-12-27T13:01:55.168Z,7.60
2022-12-27T13:04:44.812Z,7.60
2022-12-27T13:07:46.221Z,7.60
2022-12-27T13:10:46.087Z,7.60
2022-12-27T13:13:22.050Z,7.60
2022-12-27T13:16:08.977Z,7.60
2022-12-27T13:18:43.172Z,7.60
2022-12-27T13:21:25.157Z,7.60
2022-12-27T13:24:07.592Z,7.60
2022-12-27T13:26:45.720Z,7.60
2022-12-27T13:29:42.633Z,7.60
2022-12-27T13:32:24.322Z,7.60
2022-12-27T13:35:07.628Z,7.60
2022-12-27T13:37:48.602Z,7.60
2022-12-27T13:40:40.521Z,7.60
2022-12-27T13:43:47.886Z,7.60
2022-12-27T13:46:48.756Z,7.60
2022-12-27T13:49:48.882Z,7.60
2022-12-27T13:52:34.677Z,7.60
2022-12-27T13:55:17.057Z,7.60
2022-12-27T13:58:10.990Z,7.60
2022-12-27T14:00:47.731Z,7.60
2022-12-27T14:03:49.436Z,7.60
2022-12-27T14:06:37.660Z,7.60
2022-12-27T14:09:45.850Z,7.60
2022-12-27T14:13:01.664Z,7.60
2022-12-27T14:16:05.298Z,7.60
2022-12-27T14:19:06.886Z,7.60
2022-12-27T14:22:11.009Z,7.60
2022-12-27T14:33:40.405Z,7.50
2022-12-27T14:36:47.347Z,7.50
2022-12-27T14:40:09.945Z,7.50
2022-12-27T14:43:10.597Z,7.50
2022-12-27T14:46:12.474Z,7.60
2022-12-27T14:49:20.816Z,7.50
2022-12-27T14:52:26.781Z,7.60
2022-12-27T14:55:28.559Z,7.50
2022-12-27T14:58:16.567Z,7.50
2022-12-27T15:01:04.334Z,7.50
2022-12-27T15:04:02.681Z,7.50
2022-12-27T15:07:06.714Z,7.50
2022-12-27T15:09:46.895Z,7.50
2022-12-27T15:12:24.542Z,7.60
2022-12-27T15:15:11.389Z,7.50
2022-12-27T15:19:04.613Z,7.50
2022-12-27T15:26:18.712Z,7.50
2022-12-27T15:29:52.520Z,7.50
2022-12-27T15:33:24.188Z,7.60
2022-12-27T15:43:48.746Z,7.60
2022-12-27T15:47:34.624Z,7.50
2022-12-27T15:50:45.745Z,7.50
2022-12-27T15:54:46.475Z,7.60
2022-12-27T15:58:17.563Z,7.50
2022-12-27T16:01:36.298Z,7.50
2022-12-27T16:08:55.698Z,7.60
2022-12-27T16:12:30.519Z,7.60
2022-12-27T16:16:21.268Z,7.60
2022-12-27T16:19:40.811Z,7.60
2022-12-27T16:22:36.449Z,7.60
2022-12-27T16:25:56.872Z,7.60
2022-12-27T16:29:04.149Z,7.60
2022-12-27T16:32:56.236Z,7.60
2022-12-27T16:36:25.600Z,7.60
2022-12-27T16:39:33.590Z,7.60
2022-12-27T16:42:56.615Z,7.60
2022-12-27T16:46:12.876Z,7.50
2022-12-27T16:49:35.786Z,7.60
2022-12-27T16:56:59.627Z,7.60
2022-12-27T17:00:22.715Z,7.50
2022-12-27T17:03:35.088Z,7.60
2022-12-27T17:07:09.623Z,7.50
2022-12-27T17:10:50.181Z,7.50
2022-12-27T17:14:06.818Z,7.60
2022-12-27T17:18:23.514Z,7.60
2022-12-27T17:21:06.665Z,7.60
2022-12-27T17:24:15.095Z,7.60
2022-12-27T17:27:43.594Z,7.50
2022-12-27T17:33:49.977Z,7.50
2022-12-27T17:37:11.613Z,7.60
2022-12-27T17:43:57.025Z,7.50
2022-12-27T17:47:15.372Z,7.60
2022-12-27T17:50:12.033Z,7.60
2022-12-27T17:53:37.354Z,7.50
2022-12-27T17:57:08.487Z,7.50
2022-12-27T18:00:00.545Z,7.50
2022-12-27T18:03:29.402Z,7.50
2022-12-27T18:06:55.279Z,7.60
2022-12-27T18:14:06.975Z,7.50
2022-12-27T18:17:29.577Z,7.50
2022-12-27T18:23:54.295Z,7.50
2022-12-27T18:27:28.727Z,7.50
2022-12-27T18:30:34.290Z,7.50
2022-12-27T18:33:59.483Z,7.50
2022-12-27T18:37:27.071Z,7.50
2022-12-27T18:40:33.254Z,7.50
2022-12-27T18:44:23.031Z,7.50
2022-12-27T18:47:39.961Z,7.50
2022-12-27T18:50:52.851Z,7.50
2022-12-27T18:54:04.850Z,7.50
2022-12-27T18:57:44.147Z,7.50
2022-12-27T19:01:22.748Z,7.50
2022-12-27T19:05:01.349Z,7.50
2022-12-27T19:08:25.065Z,7.50
2022-12-27T19:11:36.589Z,7.50
2022-12-27T19:14:30.257Z,7.40
2022-12-27T19:17:25.155Z,7.50
2022-12-27T19:20:52.819Z,7.50
2022-12-27T19:27:30.776Z,7.40
2022-12-27T19:31:20.591Z,7.40
2022-12-27T19:34:48.208Z,7.50
2022-12-27T19:37:55.606Z,7.40
2022-12-27T19:41:26.486Z,7.50
2022-12-27T19:47:55.414Z,7.50
2022-12-27T19:51:16.826Z,7.50
2022-12-27T19:54:25.705Z,7.50
2022-12-27T19:57:34.598Z,7.50
2022-12-27T20:00:34.222Z,7.50
2022-12-27T20:03:31.327Z,7.40
2022-12-27T20:06:26.691Z,7.50
2022-12-27T20:09:39.418Z,7.40
2022-12-27T20:13:02.113Z,7.50
2022-12-27T20:16:50.935Z,7.50
2022-12-27T20:20:07.832Z,7.50
2022-12-27T20:23:32.677Z,7.40
2022-12-27T20:27:40.220Z,7.40
2022-12-27T20:33:31.755Z,7.40
2022-12-27T20:36:22.528Z,7.40
2022-12-27T20:39:45.631Z,7.40
2022-12-27T20:42:23.827Z,7.40
2022-12-27T20:45:20.687Z,7.40
2022-12-27T20:48:19.786Z,7.40
2022-12-27T20:51:46.838Z,7.40
2022-12-27T20:54:41.340Z,7.40
2022-12-27T20:57:40.644Z,7.40
2022-12-27T21:07:13.778Z,7.40
2022-12-27T21:10:45.064Z,7.40
2022-12-27T21:14:20.202Z,7.40
2022-12-27T21:17:50.002Z,7.40
2022-12-27T21:20:36.847Z,7.40
2022-12-27T21:23:59.789Z,7.40
2022-12-27T21:27:13.203Z,7.40
2022-12-27T21:33:33.243Z,7.40
2022-12-27T21:36:42.721Z,7.40
2022-12-27T21:39:42.277Z,7.40
2022-12-27T21:43:04.831Z,7.40
2022-12-27T21:46:02.486Z,7.40
2022-12-27T21:49:06.949Z,7.40
2022-12-27T21:52:17.117Z,7.40
2022-12-27T21:55:21.993Z,7.40
2022-12-27T21:58:43.750Z,7.40
2022-12-27T22:01:56.967Z,7.40
2022-12-27T22:08:19.298Z,7.40
2022-12-27T22:11:51.439Z,7.40
2022-12-27T22:15:00.419Z,7.40
2022-12-27T22:18:35.083Z,7.40
2022-12-27T22:21:34.519Z,7.40
2022-12-27T22:25:17.727Z,7.40
2022-12-27T22:28:18.268Z,7.40
2022-12-27T22:31:47.371Z,7.40
2022-12-27T22:34:39.597Z,7.40
2022-12-27T22:38:07.013Z,7.40
2022-12-27T22:41:29.201Z,7.40
2022-12-27T22:44:30.697Z,7.40
2022-12-27T22:47:38.770Z,7.40
2022-12-27T23:00:24.155Z,7.40
2022-12-27T23:03:22.360Z,7.40
2022-12-27T23:06:16.089Z,7.40
2022-12-27T23:09:28.366Z,7.40
2022-12-27T23:12:26.173Z,7.40
2022-12-27T23:15:33.787Z,7.40
2022-12-27T23:21:46.621Z,7.40
2022-12-27T23:25:17.054Z,7.40
2022-12-27T23:28:07.451Z,7.40
2022-12-27T23:31:14.178Z,7.40
2022-12-27T23:34:12.271Z,7.40
2022-12-27T23:37:18.778Z,7.40
2022-12-27T23:40:17.161Z,7.40
2022-12-27T23:43:56.512Z,7.40
2022-12-27T23:46:53.010Z,7.40
2022-12-27T23:50:02.857Z,7.40
2022-12-27T23:52:58.102Z,7.40
2022-12-27T23:55:44.108Z,7.40
